Time;durP1;ratioP1;P1;durP2;ratioP2;P2;SDS_P1;SDS_P2;PMS_P1;PMS_P2;Temp;Humidity;BMP_temperature;BMP_pressure;BME280_temperature;BME280_humidity;BME280_pressure;Samples;Min_cycle;Max_cycle;Signal;HPM_P1;HPM_P2
2022/08/01 00:00:07;;;;;;;;;;;;;;;19.82;94.79;101621.09;5075694;28;19912;-37
2022/08/01 00:02:32;;;;;;;;;;;;;;;19.79;94.20;101623.25;5075753;28;19916;-37
2022/08/01 00:04:58;;;;;;;;;;;;;;;19.80;95.29;101624.06;5075295;28;20279;-37
2022/08/01 00:07:23;;;;;;;;;;;;;;;19.78;93.57;101618.88;5075575;28;20418;-37
2022/08/01 00:09:48;;;;;;;;;;;;;;;19.79;94.42;101626.00;5075130;28;19958;-37
2022/08/01 00:12:14;;;;;;;;;;;;;;;19.77;95.32;101622.72;5075093;28;19912;-37
2022/08/01 00:14:39;;;;;;;;;;;;;;;19.73;94.70;101629.84;5075712;28;20328;-37
2022/08/01 00:17:04;;;;;;;;;;;;;;;19.78;94.66;101631.78;5074975;28;20012;-36
2022/08/01 00:19:29;;;;;;;;;;;;;;;19.76;93.82;101632.06;5074877;28;19957;-37
2022/08/01 00:21:55;;;;;;;;;;;;;;;19.77;94.46;101627.38;5075101;28;19912;-37
2022/08/01 00:24:20;;;;;;;;;;;;;;;19.76;93.91;101631.22;5075140;28;19912;-37
2022/08/01 00:26:45;;;;;;;;;;;;;;;19.75;93.35;101624.91;5073631;28;20348;-37
2022/08/01 00:29:10;;;;;;;;;;;;;;;19.76;94.06;101634.81;5074613;28;19912;-37
2022/08/01 00:31:36;;;;;;;;;;;;;;;19.78;94.17;101631.78;5074962;28;20236;-37
2022/08/01 00:34:01;;;;;;;;;;;;;;;19.78;94.17;101634.53;5074274;28;19948;-37
2022/08/01 00:36:26;;;;;;;;;;;;;;;19.79;93.77;101642.47;5074659;28;19962;-37
2022/08/01 00:38:51;;;;;;;;;;;;;;;19.80;94.12;101641.38;5074473;28;19923;-37
2022/08/01 00:41:17;;;;;;;;;;;;;;;19.82;94.34;101640.28;5074281;28;19955;-37
2022/08/01 00:43:42;;;;;;;;;;;;;;;19.80;93.61;101649.59;5074506;28;19927;-37
2022/08/01 00:46:08;;;;;;;;;;;;;;;19.80;94.31;101637.81;5074231;28;19919;-36
2022/08/01 00:48:33;;;;;;;;;;;;;;;19.78;94.42;101648.25;5074358;28;19916;-37
2022/08/01 00:50:58;;;;;;;;;;;;;;;19.77;93.92;101641.94;5074659;28;19958;-37
2022/08/01 00:53:24;;;;;;;;;;;;;;;19.78;93.61;101653.72;5074394;28;20015;-37
2022/08/01 00:55:50;;;;;;;;;;;;;;;19.78;93.58;101650.97;5074581;28;19958;-37
2022/08/01 00:58:15;;;;;;;;;;;;;;;19.77;93.29;101655.66;5074547;28;20256;-37
2022/08/01 01:00:40;;;;;;;;;;;;;;;19.79;93.27;101649.88;5074271;28;20418;-37
2022/08/01 01:03:05;;;;;;;;;;;;;;;19.78;93.31;101649.06;5073868;28;20288;-37
2022/08/01 01:05:34;;;;;;;;;;;;;;;19.78;93.05;101651.81;5073360;28;19963;-37
2022/08/01 01:08:03;;;;;;;;;;;;;;;19.78;93.57;101646.31;5073773;28;20445;-37
2022/08/01 01:10:35;;;;;;;;;;;;;;;19.77;92.91;101649.34;5074382;28;19959;-37
2022/08/01 01:13:18;;;;;;;;;;;;;;;19.74;92.66;101647.94;5073758;28;20370;-37
2022/08/01 01:15:47;;;;;;;;;;;;;;;19.72;93.17;101650.16;5074635;28;19918;-37
2022/08/01 01:18:38;;;;;;;;;;;;;;;19.70;93.07;101646.84;5073495;28;20451;-37
2022/08/01 01:21:16;;;;;;;;;;;;;;;19.68;93.08;101640.00;5072851;28;19964;-37
2022/08/01 01:23:41;;;;;;;;;;;;;;;19.66;93.28;101647.66;5073529;28;20420;-37
2022/08/01 01:26:25;;;;;;;;;;;;;;;19.64;93.38;101638.88;5074527;28;19912;-37
2022/08/01 01:29:08;;;;;;;;;;;;;;;19.64;93.50;101641.63;5073787;28;19913;-36
2022/08/01 01:31:40;;;;;;;;;;;;;;;19.62;92.68;101641.91;5072759;28;20376;-37
2022/08/01 01:34:05;;;;;;;;;;;;;;;19.63;92.76;101642.75;5073926;28;19919;-37
2022/08/01 01:36:31;;;;;;;;;;;;;;;19.61;92.71;101639.44;5074374;28;19912;-37
2022/08/01 01:38:57;;;;;;;;;;;;;;;19.60;92.30;101643.28;5073392;28;19912;-37
2022/08/01 01:41:23;;;;;;;;;;;;;;;19.60;92.65;101638.59;5074299;28;19923;-36
2022/08/01 01:43:50;;;;;;;;;;;;;;;19.58;92.52;101645.44;5073565;28;19912;-37
2022/08/01 01:46:18;;;;;;;;;;;;;;;19.58;92.30;101643.53;5073742;28;19913;-37
2022/08/01 01:48:44;;;;;;;;;;;;;;;19.57;92.17;101644.63;5074017;28;20323;-37
2022/08/01 01:51:11;;;;;;;;;;;;;;;19.58;92.45;101639.97;5073253;28;19912;-37
2022/08/01 01:53:36;;;;;;;;;;;;;;;19.56;92.31;101640.22;5073501;28;20343;-37
2022/08/01 01:56:02;;;;;;;;;;;;;;;19.56;92.38;101640.22;5073796;28;19916;-37
2022/08/01 01:58:28;;;;;;;;;;;;;;;19.55;92.40;101638.56;5073854;28;19917;-37
2022/08/01 02:00:55;;;;;;;;;;;;;;;19.55;92.48;101641.31;5073701;28;19912;-37
2022/08/01 02:03:21;;;;;;;;;;;;;;;19.55;92.23;101641.31;5073277;28;19913;-37
2022/08/01 02:05:47;;;;;;;;;;;;;;;19.54;92.25;101632.25;5073392;28;20010;-37
2022/08/01 02:08:15;;;;;;;;;;;;;;;19.53;91.99;101629.81;5073024;28;19916;-37
2022/08/01 02:10:40;;;;;;;;;;;;;;;19.52;92.03;101636.34;5073578;28;20360;-37
2022/08/01 02:13:06;;;;;;;;;;;;;;;19.50;92.11;101638.56;5073260;28;19919;-37
2022/08/01 02:15:33;;;;;;;;;;;;;;;19.48;92.19;101636.09;5073874;28;20348;-37
2022/08/01 02:17:59;;;;;;;;;;;;;;;19.44;91.87;101632.25;5073794;28;19952;-37
2022/08/01 02:20:26;;;;;;;;;;;;;;;19.43;92.28;101641.56;5073493;28;19912;-37
2022/08/01 02:23:01;;;;;;;;;;;;;;;19.42;92.40;101631.69;5073727;28;19966;-37
2022/08/01 02:25:38;;;;;;;;;;;;;;;19.42;92.20;101642.69;5073236;28;20353;-36
2022/08/01 02:28:13;;;;;;;;;;;;;;;19.41;92.07;101640.19;5073187;28;19923;-37
2022/08/01 02:30:42;;;;;;;;;;;;;;;19.42;92.16;101639.09;5073391;28;19939;-37
2022/08/01 02:33:09;;;;;;;;;;;;;;;19.42;92.08;101642.69;5072720;28;19963;-37
2022/08/01 02:35:38;;;;;;;;;;;;;;;19.42;92.11;101647.31;5073071;28;19913;-37
2022/08/01 02:38:05;;;;;;;;;;;;;;;19.42;92.21;101644.56;5072972;28;19952;-37
2022/08/01 02:40:32;;;;;;;;;;;;;;;19.41;92.02;101648.41;5072912;28;19912;-37
2022/08/01 02:42:58;;;;;;;;;;;;;;;19.41;92.12;101651.16;5072927;28;19916;-37
2022/08/01 02:45:25;;;;;;;;;;;;;;;19.40;92.07;101650.34;5073576;28;19912;-37
2022/08/01 02:47:51;;;;;;;;;;;;;;;19.39;92.19;101647.88;5072947;28;20391;-37
2022/08/01 02:50:17;;;;;;;;;;;;;;;19.37;92.25;101644.56;5074852;28;20352;-37
2022/08/01 02:52:45;;;;;;;;;;;;;;;19.38;92.27;101646.22;5076392;28;19918;-37
2022/08/01 02:55:11;;;;;;;;;;;;;;;19.36;92.28;101643.72;5076459;28;20019;-36
2022/08/01 02:57:37;;;;;;;;;;;;;;;19.36;92.43;101648.41;5076322;28;19967;-36
2022/08/01 03:00:04;;;;;;;;;;;;;;;19.34;92.37;101651.41;5076122;28;19927;-36
2022/08/01 03:02:30;;;;;;;;;;;;;;;19.30;92.24;101640.16;5076464;28;19912;-36
2022/08/01 03:04:57;;;;;;;;;;;;;;;19.28;92.16;101645.09;5076646;28;20054;-36
2022/08/01 03:07:23;;;;;;;;;;;;;;;19.23;92.26;101636.03;5077287;28;19924;-36
2022/08/01 03:09:49;;;;;;;;;;;;;;;19.21;92.31;101636.28;5076389;28;20390;-36
2022/08/01 03:12:23;;;;;;;;;;;;;;;19.20;92.37;101633.81;5076247;28;19912;-36
2022/08/01 03:14:49;;;;;;;;;;;;;;;19.18;92.32;101641.47;5076956;28;19954;-37
2022/08/01 03:17:16;;;;;;;;;;;;;;;19.16;92.25;101643.69;5076111;28;19912;-36
2022/08/01 03:19:45;;;;;;;;;;;;;;;19.14;92.22;101643.97;5075947;28;19912;-36
2022/08/01 03:22:12;;;;;;;;;;;;;;;19.11;92.11;101647.22;5075802;28;20366;-36
2022/08/01 03:24:39;;;;;;;;;;;;;;;19.08;92.16;101642.31;5075973;28;20310;-36
2022/08/01 03:27:05;;;;;;;;;;;;;;;19.03;92.10;101651.31;5076352;28;19924;-36
2022/08/01 03:29:31;;;;;;;;;;;;;;;19.00;91.92;101649.09;5075753;28;19951;-36
2022/08/01 03:31:58;;;;;;;;;;;;;;;18.99;92.19;101654.88;5075810;28;19912;-36
2022/08/01 03:34:23;;;;;;;;;;;;;;;18.98;92.38;101659.53;5076384;28;19935;-36
2022/08/01 03:37:03;;;;;;;;;;;;;;;18.94;92.48;101657.59;5075848;28;20332;-36
2022/08/01 03:39:31;;;;;;;;;;;;;;;18.92;92.42;101652.34;5076596;28;19912;-36
2022/08/01 03:41:59;;;;;;;;;;;;;;;18.89;92.70;101655.66;5075661;28;19938;-36
2022/08/01 03:44:31;;;;;;;;;;;;;;;18.88;92.63;101653.97;5075448;28;19916;-36
2022/08/01 03:46:59;;;;;;;;;;;;;;;18.85;92.79;101665.50;5075625;28;20437;-36
2022/08/01 03:49:28;;;;;;;;;;;;;;;18.84;92.97;101663.00;5075834;28;19917;-36
2022/08/01 03:51:54;;;;;;;;;;;;;;;18.81;92.68;101652.59;5075571;28;20459;-36
2022/08/01 03:54:21;;;;;;;;;;;;;;;18.77;92.58;101658.59;5076154;28;19964;-38
2022/08/01 03:56:47;;;;;;;;;;;;;;;18.77;92.80;101657.75;5075448;28;20264;-37
2022/08/01 03:59:14;;;;;;;;;;;;;;;18.76;93.10;101656.94;5076636;28;19927;-37
2022/08/01 04:01:39;;;;;;;;;;;;;;;18.74;93.29;101659.13;5075382;28;20367;-37
2022/08/01 04:04:05;;;;;;;;;;;;;;;18.72;93.40;101660.47;5075578;28;19912;-37
2022/08/01 04:06:30;;;;;;;;;;;;;;;18.70;93.03;101660.75;5075333;28;20356;-37
2022/08/01 04:08:56;;;;;;;;;;;;;;;18.69;93.69;101655.53;5075260;28;19924;-37
2022/08/01 04:11:25;;;;;;;;;;;;;;;18.66;93.59;101656.03;5075228;28;20345;-36
2022/08/01 04:13:51;;;;;;;;;;;;;;;18.64;93.21;101658.19;5075335;28;19916;-36
2022/08/01 04:16:16;;;;;;;;;;;;;;;18.60;93.67;101654.38;5075535;28;19924;-36
2022/08/01 04:18:41;;;;;;;;;;;;;;;18.59;93.44;101656.25;5075191;28;20394;-37
2022/08/01 04:21:07;;;;;;;;;;;;;;;18.57;93.33;101650.22;5075662;28;20340;-35
2022/08/01 04:23:34;;;;;;;;;;;;;;;18.56;93.54;101656.81;5074827;28;19920;-36
2022/08/01 04:26:01;;;;;;;;;;;;;;;18.55;93.20;101668.84;5075087;28;19912;-36
2022/08/01 04:28:27;;;;;;;;;;;;;;;18.54;93.34;101672.66;5074784;28;19966;-37
2022/08/01 04:30:55;;;;;;;;;;;;;;;18.52;93.41;101675.66;5075030;28;19916;-37
2022/08/01 04:33:21;;;;;;;;;;;;;;;18.50;92.97;101672.38;5074690;28;19943;-37
2022/08/01 04:35:47;;;;;;;;;;;;;;;18.49;93.21;101669.88;5074680;28;20398;-36
2022/08/01 04:38:16;;;;;;;;;;;;;;;18.48;93.39;101660.84;5074319;28;19916;-35
2022/08/01 04:40:42;;;;;;;;;;;;;;;18.43;94.00;101669.03;5074949;28;19912;-35
2022/08/01 04:43:07;;;;;;;;;;;;;;;18.39;93.54;101667.91;5074449;28;20249;-37
2022/08/01 04:45:34;;;;;;;;;;;;;;;18.38;93.56;101673.66;5074704;28;20007;-35
2022/08/01 04:47:59;;;;;;;;;;;;;;;18.38;93.62;101671.75;5074109;28;19912;-35
2022/08/01 04:50:25;;;;;;;;;;;;;;;18.40;93.75;101674.22;5074579;28;19956;-35
2022/08/01 04:52:51;;;;;;;;;;;;;;;18.39;93.63;101673.38;5074557;28;19912;-35
2022/08/01 04:55:17;;;;;;;;;;;;;;;18.40;93.67;101679.72;5075094;28;19912;-35
2022/08/01 04:57:43;;;;;;;;;;;;;;;18.39;93.36;101683.50;5074529;28;20348;-35
2022/08/01 05:00:10;;;;;;;;;;;;;;;18.40;93.54;101683.28;5073813;28;19912;-40
2022/08/01 05:02:35;;;;;;;;;;;;;;;18.42;93.31;101683.00;5074139;28;20031;-35
2022/08/01 05:05:00;;;;;;;;;;;;;;;18.46;93.85;101689.59;5074446;28;19959;-35
2022/08/01 05:07:26;;;;;;;;;;;;;;;18.51;93.90;101692.38;5073309;28;19912;-36
2022/08/01 05:09:51;;;;;;;;;;;;;;;18.57;93.54;101685.00;5074603;28;19973;-36
2022/08/01 05:12:16;;;;;;;;;;;;;;;18.61;93.28;101684.22;5072425;28;19917;-36
2022/08/01 05:14:42;;;;;;;;;;;;;;;18.64;93.70;101693.81;5074178;28;19923;-36
2022/08/01 05:17:08;;;;;;;;;;;;;;;18.68;93.50;101690.31;5074524;28;20323;-37
2022/08/01 05:19:33;;;;;;;;;;;;;;;18.72;93.61;101694.19;5074085;28;19938;-36
2022/08/01 05:22:00;;;;;;;;;;;;;;;18.77;93.17;101690.63;5073818;28;20011;-36
2022/08/01 05:24:26;;;;;;;;;;;;;;;18.81;93.46;101697.25;5073544;28;19919;-37
2022/08/01 05:26:51;;;;;;;;;;;;;;;18.85;93.59;101700.28;5073618;28;19912;-35
2022/08/01 05:29:16;;;;;;;;;;;;;;;18.87;93.22;101696.19;5073870;28;19919;-36
2022/08/01 05:31:41;;;;;;;;;;;;;;;18.90;93.23;101700.31;5074694;28;19939;-36
2022/08/01 05:34:06;;;;;;;;;;;;;;;18.91;93.39;101702.78;5073913;28;19912;-35
2022/08/01 05:36:32;;;;;;;;;;;;;;;18.94;93.37;101706.91;5073985;28;20268;-36
2022/08/01 05:38:57;;;;;;;;;;;;;;;18.98;93.98;101716.22;5073480;28;19934;-36
2022/08/01 05:41:22;;;;;;;;;;;;;;;19.02;94.14;101714.63;5073964;28;19956;-36
2022/08/01 05:43:47;;;;;;;;;;;;;;;19.07;93.77;101706.41;5073708;28;19913;-36
2022/08/01 05:46:12;;;;;;;;;;;;;;;19.12;93.94;101714.66;5073862;28;19927;-36
2022/08/01 05:48:38;;;;;;;;;;;;;;;19.14;93.31;101711.69;5073391;28;19919;-36
2022/08/01 05:51:03;;;;;;;;;;;;;;;19.17;93.43;101700.16;5073400;28;19923;-36
2022/08/01 05:53:29;;;;;;;;;;;;;;;19.17;94.97;101706.47;5073772;28;20270;-36
2022/08/01 05:55:54;;;;;;;;;;;;;;;19.16;94.44;101715.78;5073281;28;19912;-36
2022/08/01 05:58:20;;;;;;;;;;;;;;;19.21;94.04;101715.81;5073609;28;19946;-36
2022/08/01 06:00:45;;;;;;;;;;;;;;;19.27;94.44;101711.97;5072851;28;19920;-36
2022/08/01 06:03:11;;;;;;;;;;;;;;;19.32;93.97;101707.63;5073247;28;19919;-36
2022/08/01 06:05:36;;;;;;;;;;;;;;;19.37;94.15;101713.13;5073192;28;19912;-36
2022/08/01 06:08:01;;;;;;;;;;;;;;;19.37;93.65;101710.38;5071954;28;19916;-36
2022/08/01 06:10:26;;;;;;;;;;;;;;;19.38;93.44;101712.03;5073781;28;20043;-35
2022/08/01 06:12:52;;;;;;;;;;;;;;;19.37;94.16;101722.16;5073429;28;20275;-36
2022/08/01 06:15:17;;;;;;;;;;;;;;;19.36;93.45;101720.53;5073385;28;20356;-36
2022/08/01 06:17:42;;;;;;;;;;;;;;;19.39;94.21;101714.50;5073134;28;19958;-36
2022/08/01 06:20:08;;;;;;;;;;;;;;;19.41;93.92;101712.31;5073336;28;19912;-36
2022/08/01 06:22:33;;;;;;;;;;;;;;;19.45;94.50;101713.44;5073358;28;19913;-36
2022/08/01 06:24:58;;;;;;;;;;;;;;;19.46;94.33;101720.56;5076922;28;19920;-36
2022/08/01 06:27:25;;;;;;;;;;;;;;;19.49;94.46;101725.50;5077224;28;19916;-36
2022/08/01 06:29:53;;;;;;;;;;;;;;;19.53;93.97;101717.56;5077825;28;19924;-36
2022/08/01 06:32:18;;;;;;;;;;;;;;;19.59;95.09;101723.91;5077392;28;19913;-36
2022/08/01 06:34:43;;;;;;;;;;;;;;;19.66;94.29;101721.75;5077488;28;20198;-36
2022/08/01 06:37:08;;;;;;;;;;;;;;;19.72;94.25;101723.44;5076549;28;19912;-36
2022/08/01 06:39:34;;;;;;;;;;;;;;;19.72;93.84;101729.72;5077385;28;19912;-36
2022/08/01 06:41:59;;;;;;;;;;;;;;;19.68;93.41;101728.63;5076411;28;19920;-36
2022/08/01 06:44:24;;;;;;;;;;;;;;;19.63;93.13;101727.78;5077084;28;19918;-36
2022/08/01 06:46:49;;;;;;;;;;;;;;;19.67;93.68;101732.47;5077384;28;19919;-36
2022/08/01 06:49:14;;;;;;;;;;;;;;;19.67;92.94;101737.13;5076581;28;20307;-36
2022/08/01 06:51:40;;;;;;;;;;;;;;;19.69;93.02;101734.94;5076555;28;20390;-36
2022/08/01 06:54:05;;;;;;;;;;;;;;;19.71;93.20;101744.53;5076485;28;20441;-36
2022/08/01 06:56:31;;;;;;;;;;;;;;;19.78;92.98;101744.28;5076759;28;20372;-36
2022/08/01 06:59:00;;;;;;;;;;;;;;;19.86;92.62;101748.41;5076429;28;19916;-36
2022/08/01 07:01:26;;;;;;;;;;;;;;;19.93;92.50;101746.25;5077097;28;19919;-36
2022/08/01 07:03:52;;;;;;;;;;;;;;;19.98;92.20;101744.31;5076347;28;20007;-36
2022/08/01 07:06:17;;;;;;;;;;;;;;;20.04;91.93;101745.16;5076546;28;20368;-36
2022/08/01 07:08:43;;;;;;;;;;;;;;;20.03;91.56;101740.75;5076112;28;20007;-36
2022/08/01 07:11:08;;;;;;;;;;;;;;;20.08;91.67;101754.50;5076441;28;19951;-36
2022/08/01 07:13:33;;;;;;;;;;;;;;;20.13;91.54;101756.41;5075885;28;20373;-37
2022/08/01 07:15:58;;;;;;;;;;;;;;;20.14;91.39;101750.66;5076105;28;19912;-36
2022/08/01 07:18:24;;;;;;;;;;;;;;;20.17;91.42;101746.53;5076435;28;19912;-36
2022/08/01 07:20:49;;;;;;;;;;;;;;;20.19;91.21;101750.66;5075941;28;19984;-36
2022/08/01 07:23:15;;;;;;;;;;;;;;;20.21;91.16;101745.72;5075723;28;19919;-37
2022/08/01 07:25:40;;;;;;;;;;;;;;;20.23;91.35;101749.00;5075699;28;19958;-36
2022/08/01 07:28:05;;;;;;;;;;;;;;;20.25;90.92;101745.97;5075924;28;20387;-37
2022/08/01 07:30:30;;;;;;;;;;;;;;;20.31;90.80;101753.97;5075649;28;20002;-36
2022/08/01 07:32:56;;;;;;;;;;;;;;;20.38;90.75;101752.88;5075721;28;19913;-36
2022/08/01 07:35:21;;;;;;;;;;;;;;;20.35;89.73;101746.00;5075048;28;19939;-36
2022/08/01 07:37:47;;;;;;;;;;;;;;;20.37;89.94;101746.56;5075959;28;19923;-36
2022/08/01 07:40:12;;;;;;;;;;;;;;;20.41;89.77;101755.06;5075419;28;19912;-36
2022/08/01 07:42:37;;;;;;;;;;;;;;;20.50;89.92;101756.19;5074166;28;20257;-36
2022/08/01 07:45:03;;;;;;;;;;;;;;;20.62;89.84;101762.22;5075339;28;20417;-37
2022/08/01 07:47:28;;;;;;;;;;;;;;;20.70;89.53;101764.44;5075641;28;19912;-37
2022/08/01 07:49:59;;;;;;;;;;;;;;;20.78;89.09;101760.28;5075459;28;19920;-36
2022/08/01 07:52:24;;;;;;;;;;;;;;;20.78;87.61;101769.34;5075235;28;19912;-37
2022/08/01 07:54:49;;;;;;;;;;;;;;;20.85;88.25;101766.31;5076146;28;20364;-36
2022/08/01 07:57:14;;;;;;;;;;;;;;;20.92;87.74;101766.84;5075290;28;19932;-37
2022/08/01 07:59:39;;;;;;;;;;;;;;;21.02;88.22;101763.25;5075310;28;20368;-36
2022/08/01 08:02:05;;;;;;;;;;;;;;;21.13;87.83;101753.91;5074828;28;19913;-36
2022/08/01 08:04:30;;;;;;;;;;;;;;;21.12;86.43;101773.41;5075577;28;19919;-36
2022/08/01 08:06:55;;;;;;;;;;;;;;;21.20;86.86;101761.84;5075227;28;19916;-36
2022/08/01 08:09:21;;;;;;;;;;;;;;;21.25;86.26;101757.13;5074288;28;19917;-36
2022/08/01 08:11:46;;;;;;;;;;;;;;;21.38;86.69;101755.75;5075364;28;20003;-36
2022/08/01 08:14:11;;;;;;;;;;;;;;;21.47;86.73;101761.47;5075945;28;19966;-36
2022/08/01 08:16:37;;;;;;;;;;;;;;;21.52;86.25;101758.69;5075817;28;19919;-37
2022/08/01 08:19:03;;;;;;;;;;;;;;;21.54;86.39;101759.25;5074949;28;19912;-36
2022/08/01 08:21:28;;;;;;;;;;;;;;;21.58;86.66;101765.84;5075884;28;19913;-36
2022/08/01 08:26:37;;;;;;;;;;;;;;;21.82;85.71;101753.03;5075120;28;19919;-37
2022/08/01 08:29:02;;;;;;;;;;;;;;;21.84;84.93;101759.06;5074974;28;19975;-37
2022/08/01 08:31:28;;;;;;;;;;;;;;;21.80;84.75;101758.00;5074997;28;19912;-37
2022/08/01 08:33:53;;;;;;;;;;;;;;;21.75;84.04;101760.78;5075121;28;19928;-36
2022/08/01 08:36:18;;;;;;;;;;;;;;;21.72;83.84;101761.38;5075220;28;19913;-37
2022/08/01 08:38:43;;;;;;;;;;;;;;;21.75;84.40;101759.97;5074544;28;19919;-37
2022/08/01 08:41:09;;;;;;;;;;;;;;;21.90;84.58;101761.81;5075275;28;19935;-37
2022/08/01 08:43:35;;;;;;;;;;;;;;;22.11;82.70;101760.59;5074394;28;19916;-37
2022/08/01 08:46:00;;;;;;;;;;;;;;;22.31;84.11;101759.63;5074749;28;19916;-37
2022/08/01 08:48:26;;;;;;;;;;;;;;;22.52;79.69;101763.84;5073537;28;19997;-37
2022/08/01 08:50:51;;;;;;;;;;;;;;;22.66;82.05;101769.50;5073988;28;19920;-37
2022/08/01 08:53:17;;;;;;;;;;;;;;;22.79;80.57;101762.47;5074151;28;19912;-37
2022/08/01 08:55:43;;;;;;;;;;;;;;;22.76;77.64;101763.91;5074984;28;20256;-37
2022/08/01 08:58:13;;;;;;;;;;;;;;;22.59;78.83;101763.50;5074091;28;19954;-37
2022/08/01 09:00:41;;;;;;;;;;;;;;;22.54;80.35;101769.88;5074276;28;20246;-36
2022/08/01 09:03:06;;;;;;;;;;;;;;;22.51;80.59;101755.88;5073711;28;19912;-36
2022/08/01 09:05:31;;;;;;;;;;;;;;;22.45;80.09;101765.28;5074406;28;19963;-36
2022/08/01 09:07:57;;;;;;;;;;;;;;;22.44;80.82;101764.47;5073630;28;19958;-36
2022/08/01 09:10:22;;;;;;;;;;;;;;;22.48;80.79;101767.47;5073959;28;20002;-37
2022/08/01 09:13:06;;;;;;;;;;;;;;;22.68;79.99;101774.72;5073819;28;20012;-37
2022/08/01 09:15:44;;;;;;;;;;;;;;;22.65;77.40;101776.16;5074354;28;20270;-36
2022/08/01 09:18:28;;;;;;;;;;;;;;;22.53;78.92;101786.72;5073881;28;19948;-36
2022/08/01 09:21:24;;;;;;;;;;;;;;;22.41;80.18;101786.28;5073511;28;20316;-36
2022/08/01 09:23:50;;;;;;;;;;;;;;;22.33;79.88;101788.53;5052061;28;19919;-36
2022/08/01 09:26:17;;;;;;;;;;;;;;;22.25;80.08;101783.66;5051496;28;19912;-36
2022/08/01 09:28:42;;;;;;;;;;;;;;;22.23;79.63;101782.28;5051341;28;19916;-36
2022/08/01 09:31:09;;;;;;;;;;;;;;;22.25;80.02;101799.31;5051909;28;19913;-36
2022/08/01 09:33:48;;;;;;;;;;;;;;;22.45;79.89;101785.41;5051285;28;20386;-37
2022/08/01 09:36:13;;;;;;;;;;;;;;;22.83;78.93;101788.38;5052076;28;19913;-36
2022/08/01 09:38:38;;;;;;;;;;;;;;;23.15;78.26;101792.50;5051282;28;19912;-36
2022/08/01 09:41:03;;;;;;;;;;;;;;;23.39;76.31;101782.28;5051350;28;19912;-36
2022/08/01 09:43:30;;;;;;;;;;;;;;;23.58;75.92;101785.09;5051181;28;19913;-36
2022/08/01 09:45:55;;;;;;;;;;;;;;;23.78;74.97;101786.78;5051695;28;19913;-36
2022/08/01 09:48:21;;;;;;;;;;;;;;;23.63;70.09;101785.88;5051349;28;19912;-36
2022/08/01 09:50:47;;;;;;;;;;;;;;;23.43;72.83;101788.84;5051353;28;20049;-36
2022/08/01 09:53:13;;;;;;;;;;;;;;;23.31;73.80;101794.78;5051093;28;20008;-36
2022/08/01 09:55:39;;;;;;;;;;;;;;;23.18;74.56;101798.25;5051132;28;19986;-36
2022/08/01 09:58:05;;;;;;;;;;;;;;;23.10;76.21;101805.22;5050570;28;19924;-37
2022/08/01 10:00:31;;;;;;;;;;;;;;;23.05;75.71;101798.94;5052986;28;20288;-36
2022/08/01 10:02:57;;;;;;;;;;;;;;;22.97;73.80;101797.63;5053353;28;19913;-37
2022/08/01 10:05:32;;;;;;;;;;;;;;;22.95;73.36;101799.06;5053626;28;19923;-37
2022/08/01 10:07:59;;;;;;;;;;;;;;;23.00;75.26;101808.09;5053238;28;19912;-36
2022/08/01 10:10:24;;;;;;;;;;;;;;;23.14;74.56;101808.22;5053319;28;19913;-36
2022/08/01 10:12:51;;;;;;;;;;;;;;;23.32;73.55;101795.59;5052976;28;19920;-36
2022/08/01 10:15:17;;;;;;;;;;;;;;;23.52;72.61;101805.56;5054077;28;20015;-36
2022/08/01 10:17:46;;;;;;;;;;;;;;;23.63;70.42;101807.09;5053922;28;19970;-36
2022/08/01 10:20:12;;;;;;;;;;;;;;;23.42;71.18;101805.69;5053705;28;19940;-37
2022/08/01 10:22:37;;;;;;;;;;;;;;;23.41;72.52;101809.56;5053392;28;20264;-37
2022/08/01 10:25:03;;;;;;;;;;;;;;;23.44;72.95;101806.25;5053359;28;19917;-37
2022/08/01 10:27:29;;;;;;;;;;;;;;;23.42;71.69;101817.56;5053020;28;19939;-36
2022/08/01 10:29:56;;;;;;;;;;;;;;;23.38;71.83;101813.75;5053652;28;19913;-36
2022/08/01 10:32:21;;;;;;;;;;;;;;;23.30;72.16;101828.19;5053501;28;19920;-36
2022/08/01 10:34:49;;;;;;;;;;;;;;;23.20;72.77;101823.59;5053320;28;20047;-36
2022/08/01 10:37:14;;;;;;;;;;;;;;;23.07;71.44;101816.84;5053360;28;19913;-36
2022/08/01 10:39:39;;;;;;;;;;;;;;;22.82;72.39;101820.63;5053024;28;19919;-36
2022/08/01 10:42:05;;;;;;;;;;;;;;;22.61;72.37;101835.72;5052997;28;19913;-36
2022/08/01 10:44:31;;;;;;;;;;;;;;;22.17;73.89;101833.00;5052898;28;20398;-36
2022/08/01 10:47:03;;;;;;;;;;;;;;;22.05;74.26;101836.06;5052499;28;19928;-36
2022/08/01 10:49:30;;;;;;;;;;;;;;;21.92;74.72;101836.69;5053451;28;19959;-36
2022/08/01 10:51:55;;;;;;;;;;;;;;;21.75;75.25;101846.13;5053130;28;20253;-36
2022/08/01 10:54:24;;;;;;;;;;;;;;;21.36;75.12;101848.72;5052829;28;19913;-36
2022/08/01 10:56:50;;;;;;;;;;;;;;;21.32;74.74;101850.38;5053642;28;19913;-36
2022/08/01 10:59:22;;;;;;;;;;;;;;;21.28;75.37;101852.88;5072374;28;19916;-36
2022/08/01 11:02:16;;;;;;;;;;;;;;;21.38;75.42;101853.97;5073010;28;19919;-36
2022/08/01 11:04:51;;;;;;;;;;;;;;;21.50;75.02;101859.97;5051072;28;20089;-36
2022/08/01 11:07:18;;;;;;;;;;;;;;;21.63;74.86;101861.31;5050989;28;20261;-36
2022/08/01 11:09:45;;;;;;;;;;;;;;;21.77;74.33;101854.94;5050477;28;19948;-36
2022/08/01 11:12:17;;;;;;;;;;;;;;;21.99;73.78;101853.72;5054235;28;19999;-36
2022/08/01 11:15:07;;;;;;;;;;;;;;;22.13;73.75;101859.47;5037193;28;19913;-36
2022/08/01 11:17:36;;;;;;;;;;;;;;;22.34;72.78;101849.97;4975220;28;19975;-36
2022/08/01 11:20:05;;;;;;;;;;;;;;;22.57;72.00;101853.94;4975775;28;19918;-37
2022/08/01 11:22:30;;;;;;;;;;;;;;;22.67;70.11;101853.84;4975230;28;20079;-36
2022/08/01 11:24:59;;;;;;;;;;;;;;;22.66;70.47;101856.91;4975790;28;19914;-36
2022/08/01 11:27:25;;;;;;;;;;;;;;;22.75;70.03;101868.97;4975366;28;20089;-36
2022/08/01 11:30:09;;;;;;;;;;;;;;;22.84;67.96;101859.78;4975168;28;19921;-36
2022/08/01 11:32:47;;;;;;;;;;;;;;;23.07;68.47;101854.63;4974861;28;19968;-36
2022/08/01 11:35:13;;;;;;;;;;;;;;;23.37;68.54;101862.59;4974997;28;19937;-37
2022/08/01 11:37:38;;;;;;;;;;;;;;;23.71;68.24;101856.16;4974953;28;19914;-37
2022/08/01 11:40:21;;;;;;;;;;;;;;;23.95;68.19;101863.59;4978189;28;20317;-36
2022/08/01 11:42:50;;;;;;;;;;;;;;;24.09;63.71;101858.97;5013550;28;19920;-37
2022/08/01 11:45:15;;;;;;;;;;;;;;;24.24;65.92;101858.75;5014271;28;19913;-36
2022/08/01 11:47:49;;;;;;;;;;;;;;;24.45;66.87;101852.94;5013873;28;20305;-37
2022/08/01 11:50:30;;;;;;;;;;;;;;;24.52;64.64;101853.41;5013840;28;19913;-36
2022/08/01 11:52:58;;;;;;;;;;;;;;;24.80;65.17;101855.16;5013477;28;20296;-37
2022/08/01 11:55:24;;;;;;;;;;;;;;;24.87;61.56;101849.22;5067639;28;19912;-36
2022/08/01 11:57:49;;;;;;;;;;;;;;;24.97;64.07;101856.53;5075715;28;19970;-37
2022/08/01 12:00:16;;;;;;;;;;;;;;;24.84;62.25;101855.34;5075683;28;20283;-37
2022/08/01 12:02:42;;;;;;;;;;;;;;;24.72;64.55;101853.06;5075149;28;19916;-37
2022/08/01 12:05:14;;;;;;;;;;;;;;;25.01;64.13;101854.78;5076219;28;19913;-37
2022/08/01 12:07:43;;;;;;;;;;;;;;;25.09;61.88;101857.72;5075649;28;20304;-36
2022/08/01 12:10:13;;;;;;;;;;;;;;;25.04;62.39;101851.44;5075396;28;19912;-37
2022/08/01 12:12:42;;;;;;;;;;;;;;;25.02;64.44;101854.47;5074929;28;20287;-37
2022/08/01 12:15:08;;;;;;;;;;;;;;;24.81;62.64;101861.50;5075771;28;19919;-37
2022/08/01 12:17:37;;;;;;;;;;;;;;;24.54;63.03;101862.22;5075167;28;19912;-37
2022/08/01 12:20:04;;;;;;;;;;;;;;;24.36;63.92;101867.47;5075445;28;20045;-37
2022/08/01 12:22:30;;;;;;;;;;;;;;;24.25;65.85;101865.94;5074775;28;19913;-37
2022/08/01 12:24:55;;;;;;;;;;;;;;;24.18;65.12;101862.72;5075270;28;19919;-37
2022/08/01 12:27:30;;;;;;;;;;;;;;;24.13;65.32;101871.09;5075004;28;20422;-36
2022/08/01 12:29:57;;;;;;;;;;;;;;;23.93;63.95;101868.59;5075108;28;20007;-36
2022/08/01 12:32:24;;;;;;;;;;;;;;;23.76;64.53;101869.09;5074697;28;20348;-37
2022/08/01 12:34:49;;;;;;;;;;;;;;;23.62;64.44;101875.31;5074827;28;19995;-37
2022/08/01 12:37:15;;;;;;;;;;;;;;;23.55;62.74;101879.53;5074914;28;19966;-37